Time;durP1;ratioP1;P1;durP2;ratioP2;P2;SDS_P1;SDS_P2;PMS_P1;PMS_P2;Temp;Humidity;BMP_temperature;BMP_pressure;BME280_temperature;BME280_humidity;BME280_pressure;Samples;Min_cycle;Max_cycle;Signal;HPM_P1;HPM_P2
2022/03/19 00:02:19;;;;;;;58.20;44.70;;;7.40;55.20;;;;;;20762;6826;117684;-71
2022/03/19 00:04:45;;;;;;;54.77;43.60;;;7.30;55.60;;;;;;20768;6826;117149;-71
2022/03/19 00:07:11;;;;;;;64.10;53.90;;;7.20;55.50;;;;;;20556;6826;310805;-71
2022/03/19 00:09:39;;;;;;;60.27;53.77;;;7.60;55.40;;;;;;20543;6826;281027;-70
2022/03/19 00:12:03;;;;;;;60.65;54.05;;;7.90;54.50;;;;;;20547;6826;306598;-71
2022/03/19 00:14:28;;;;;;;61.42;54.92;;;8.30;53.70;;;;;;20556;6826;307004;-72
2022/03/19 00:16:54;;;;;;;60.87;54.27;;;8.70;52.20;;;;;;20559;6826;336140;-70
2022/03/19 00:19:20;;;;;;;60.47;47.03;;;8.70;52.20;;;;;;20752;6826;117224;-70
2022/03/19 00:21:46;;;;;;;53.57;43.13;;;8.20;52.90;;;;;;20780;6826;120675;-71
2022/03/19 00:24:11;;;;;;;61.00;54.30;;;8.20;52.90;;;;;;20564;6826;313987;-71
2022/03/19 00:26:37;;;;;;;57.03;46.57;;;8.20;53.00;;;;;;20782;6826;117300;-71
2022/03/19 00:29:02;;;;;;;61.63;54.60;;;8.10;53.10;;;;;;20565;6826;293096;-71
2022/03/19 00:31:28;;;;;;;62.00;54.90;;;8.20;53.00;;;;;;20535;6826;282475;-71
2022/03/19 00:33:54;;;;;;;62.13;55.20;;;8.60;51.80;;;;;;20552;6826;336178;-71
2022/03/19 00:36:21;;;;;;;60.20;48.13;;;8.70;51.90;;;;;;20762;6826;117396;-71
2022/03/19 00:38:46;;;;;;;62.17;55.17;;;8.50;52.00;;;;;;20532;6826;336726;-71
2022/03/19 00:41:14;;;;;;;61.20;54.60;;;8.60;51.60;;;;;;20507;6826;278785;-73
2022/03/19 00:43:41;;;;;;;62.47;55.88;;;8.60;51.60;;;;;;20379;6826;308388;-72
2022/03/19 00:46:05;;;;;;;57.30;45.83;;;8.80;51.20;;;;;;20731;6824;117130;-71
2022/03/19 00:48:31;;;;;;;59.65;46.35;;;8.60;51.50;;;;;;20743;6825;117455;-71
2022/03/19 00:50:57;;;;;;;59.53;53.03;;;8.20;52.20;;;;;;20547;6826;303092;-71
2022/03/19 00:53:23;;;;;;;55.97;46.37;;;8.20;52.20;;;;;;20755;6826;118748;-71
2022/03/19 00:55:48;;;;;;;61.25;53.53;;;8.10;52.40;;;;;;20556;6826;277974;-70
2022/03/19 00:58:14;;;;;;;65.15;48.47;;;8.20;52.30;;;;;;20772;6826;117196;-72
2022/03/19 01:00:40;;;;;;;59.53;53.03;;;8.20;52.80;;;;;;20547;6826;338121;-71
2022/03/19 01:03:06;;;;;;;56.87;46.40;;;8.20;52.20;;;;;;20775;6826;117574;-71
2022/03/19 01:05:31;;;;;;;60.07;53.57;;;8.10;52.30;;;;;;20543;6826;280935;-71
2022/03/19 01:07:57;;;;;;;56.87;47.13;;;8.20;52.80;;;;;;20767;6826;117626;-71
2022/03/19 01:10:23;;;;;;;60.60;54.03;;;8.10;51.70;;;;;;20564;6826;298961;-71
2022/03/19 01:12:49;;;;;;;59.77;53.37;;;8.10;52.10;;;;;;20555;6826;307093;-71
2022/03/19 01:15:15;;;;;;;57.95;46.55;;;8.40;51.60;;;;;;20758;6826;118224;-71
2022/03/19 01:17:40;;;;;;;56.27;45.33;;;8.20;51.60;;;;;;20765;6826;121186;-71
2022/03/19 01:20:06;;;;;;;53.83;43.38;;;7.70;53.10;;;;;;20763;6826;117647;-70
2022/03/19 01:22:32;;;;;;;58.67;51.73;;;7.60;52.70;;;;;;20551;6826;277646;-70
2022/03/19 01:25:00;;;;;;;58.63;52.30;;;7.80;52.60;;;;;;20571;6826;277814;-70
2022/03/19 01:27:23;;;;;;;60.63;46.92;;;8.10;51.90;;;;;;20739;6826;147197;-71
2022/03/19 01:29:48;;;;;;;55.03;43.37;;;8.00;51.80;;;;;;20767;6826;117482;-71
2022/03/19 01:32:14;;;;;;;55.53;41.07;;;7.80;52.40;;;;;;20755;6826;118155;-71
2022/03/19 01:34:39;;;;;;;52.70;41.57;;;7.50;52.90;;;;;;20770;6826;117233;-71
2022/03/19 01:37:05;;;;;;;51.87;41.43;;;7.40;53.30;;;;;;20764;6826;119126;-71
2022/03/19 01:39:31;;;;;;;49.97;42.33;;;7.20;54.20;;;;;;20753;6826;121936;-71
2022/03/19 01:41:56;;;;;;;52.80;40.47;;;7.10;53.80;;;;;;20770;6826;118064;-71
2022/03/19 01:44:22;;;;;;;54.37;43.10;;;7.00;54.00;;;;;;20772;6826;117340;-71
2022/03/19 01:47:01;;;;;;;57.33;49.80;;;6.90;54.20;;;;;;20576;6826;299360;-71
2022/03/19 01:49:26;;;;;;;54.80;44.57;;;7.20;53.70;;;;;;20758;6826;118259;-71
2022/03/19 01:51:52;;;;;;;56.58;50.47;;;7.20;53.30;;;;;;20566;6826;277201;-71
2022/03/19 01:54:17;;;;;;;56.50;50.67;;;7.40;52.90;;;;;;20557;6826;278927;-71
2022/03/19 01:56:44;;;;;;;56.15;50.30;;;7.80;52.10;;;;;;20535;6824;336595;-71
2022/03/19 01:59:10;;;;;;;47.57;42.00;;;7.90;51.30;;;;;;20774;6825;117625;-71
2022/03/19 02:01:36;;;;;;;50.67;42.30;;;7.90;51.30;;;;;;20741;6826;122589;-71
2022/03/19 02:04:02;;;;;;;49.95;40.63;;;7.60;51.70;;;;;;20774;6826;117114;-71
2022/03/19 02:06:28;;;;;;;49.90;39.90;;;7.20;52.80;;;;;;20768;6826;117407;-70
2022/03/19 02:08:55;;;;;;;50.20;38.47;;;7.20;52.80;;;;;;20763;6826;117165;-71
2022/03/19 02:11:20;;;;;;;55.22;48.72;;;7.00;53.10;;;;;;20532;6826;336192;-71
2022/03/19 02:13:46;;;;;;;55.67;49.63;;;7.20;52.80;;;;;;20549;6826;306924;-71
2022/03/19 02:16:11;;;;;;;55.60;49.73;;;7.50;51.90;;;;;;20548;6826;309871;-71
2022/03/19 02:18:37;;;;;;;49.60;42.50;;;7.80;51.10;;;;;;20770;6826;117721;-71
2022/03/19 02:21:02;;;;;;;54.45;48.78;;;7.70;51.10;;;;;;20560;6826;312503;-71
2022/03/19 02:26:14;;;;;;;54.17;48.47;;;7.70;51.40;;;;;;20557;6826;290317;-71
2022/03/19 02:28:40;;;;;;;50.90;43.53;;;7.70;50.90;;;;;;20769;6826;117658;-71
2022/03/19 02:31:05;;;;;;;47.70;40.03;;;7.60;51.00;;;;;;20766;6826;117329;-70
2022/03/19 02:33:31;;;;;;;53.07;47.60;;;7.30;51.40;;;;;;20551;6826;284534;-71
2022/03/19 02:35:56;;;;;;;53.08;47.60;;;7.40;51.30;;;;;;20568;6826;333362;-71
2022/03/19 02:38:22;;;;;;;48.30;40.13;;;7.70;50.70;;;;;;20776;6826;117799;-71
2022/03/19 02:40:48;;;;;;;51.58;46.35;;;7.60;50.70;;;;;;20561;6826;299051;-71
2022/03/19 02:43:14;;;;;;;52.57;47.17;;;7.90;50.00;;;;;;20555;6826;277774;-73
2022/03/19 02:45:40;;;;;;;50.90;45.70;;;7.80;49.90;;;;;;20396;6826;307048;-71
2022/03/19 02:48:06;;;;;;;46.17;40.50;;;8.10;49.40;;;;;;20766;6826;118826;-71
2022/03/19 02:50:34;;;;;;;46.37;38.88;;;7.80;49.50;;;;;;20765;6826;117318;-71
2022/03/19 02:52:59;;;;;;;52.47;46.93;;;7.50;50.10;;;;;;20552;6826;310201;-70
2022/03/19 02:55:25;;;;;;;48.90;39.70;;;7.50;50.10;;;;;;20736;6826;120164;-71
2022/03/19 02:57:50;;;;;;;49.87;44.70;;;7.40;50.30;;;;;;20554;6826;308360;-70
2022/03/19 03:00:16;;;;;;;50.70;40.45;;;7.50;50.10;;;;;;20763;6826;121098;-70
2022/03/19 03:02:41;;;;;;;47.77;38.57;;;7.40;50.20;;;;;;20766;6826;117249;-71
2022/03/19 03:05:07;;;;;;;46.27;35.67;;;7.20;50.70;;;;;;20774;6826;117182;-71
2022/03/19 03:07:33;;;;;;;50.40;45.03;;;7.00;51.10;;;;;;20530;6824;282086;-71
2022/03/19 03:09:59;;;;;;;50.75;45.47;;;7.40;50.20;;;;;;20560;6825;307078;-71
2022/03/19 03:12:25;;;;;;;47.83;39.53;;;7.40;50.20;;;;;;20777;6826;117620;-71
2022/03/19 03:14:50;;;;;;;49.85;44.85;;;7.40;50.20;;;;;;20565;6826;278705;-71
2022/03/19 03:17:16;;;;;;;48.43;38.73;;;7.40;49.90;;;;;;20765;6826;118520;-71
2022/03/19 03:19:43;;;;;;;49.03;43.97;;;7.40;50.00;;;;;;20564;6826;307374;-71
2022/03/19 03:22:08;;;;;;;50.60;45.53;;;7.40;49.80;;;;;;20563;6826;310059;-71
2022/03/19 03:24:34;;;;;;;49.63;44.63;;;7.70;49.20;;;;;;20551;6826;283923;-71
2022/03/19 03:27:00;;;;;;;43.92;38.53;;;7.70;48.90;;;;;;20775;6826;118064;-70
2022/03/19 03:29:26;;;;;;;41.53;35.77;;;7.70;48.90;;;;;;20745;6826;122166;-73
2022/03/19 03:31:51;;;;;;;43.55;35.65;;;7.40;49.50;;;;;;20754;6826;121688;-70
2022/03/19 03:34:17;;;;;;;44.57;35.77;;;7.10;50.00;;;;;;20746;6826;117679;-70
2022/03/19 03:36:42;;;;;;;40.60;33.60;;;6.90;50.50;;;;;;20749;6826;117327;-70
2022/03/19 03:39:08;;;;;;;47.83;42.63;;;6.70;50.80;;;;;;20542;6826;307546;-70
2022/03/19 03:41:33;;;;;;;46.80;42.00;;;6.90;50.40;;;;;;20523;6826;308221;-70
2022/03/19 03:43:59;;;;;;;47.97;43.07;;;7.20;49.50;;;;;;20554;6826;277672;-70
2022/03/19 03:46:25;;;;;;;46.87;42.07;;;7.50;48.80;;;;;;20559;6826;280633;-70
2022/03/19 03:48:50;;;;;;;47.30;37.60;;;7.70;48.10;;;;;;20762;6826;119312;-70
2022/03/19 03:51:16;;;;;;;41.90;36.33;;;7.30;48.90;;;;;;20742;6826;118437;-70
2022/03/19 03:53:42;;;;;;;42.00;34.50;;;7.30;48.90;;;;;;20767;6826;117476;-73
2022/03/19 03:56:07;;;;;;;41.23;33.87;;;7.00;49.60;;;;;;20761;6826;119359;-73
2022/03/19 03:58:33;;;;;;;41.57;33.83;;;6.80;50.10;;;;;;20777;6826;117203;-73
2022/03/19 04:00:59;;;;;;;46.03;41.22;;;6.60;50.40;;;;;;20575;6826;326913;-70
2022/03/19 04:03:24;;;;;;;47.58;42.75;;;6.80;49.90;;;;;;20546;6826;279976;-71
2022/03/19 04:05:50;;;;;;;46.65;41.85;;;7.20;49.10;;;;;;20569;6826;278847;-73
2022/03/19 04:08:15;;;;;;;42.50;36.40;;;7.50;48.30;;;;;;20768;6826;117240;-73
2022/03/19 04:10:41;;;;;;;45.58;40.60;;;7.40;48.40;;;;;;20552;6826;319670;-73
2022/03/19 04:13:08;;;;;;;41.13;35.20;;;7.40;48.30;;;;;;20764;6826;118115;-73
2022/03/19 04:15:33;;;;;;;45.53;35.50;;;7.30;48.40;;;;;;20747;6826;120649;-70
2022/03/19 04:17:59;;;;;;;39.83;33.70;;;7.00;48.90;;;;;;20768;6826;119969;-71
2022/03/19 04:20:24;;;;;;;62.15;56.05;;;6.80;49.40;;;;;;20546;6824;336549;-70
2022/03/19 04:22:50;;;;;;;46.47;41.67;;;6.90;49.10;;;;;;20560;6825;277956;-71
2022/03/19 04:25:19;;;;;;;42.30;35.70;;;7.20;48.30;;;;;;20748;6826;119314;-71
2022/03/19 04:27:44;;;;;;;41.77;34.93;;;7.20;48.40;;;;;;20759;6826;118858;-71
2022/03/19 04:30:14;;;;;;;44.22;39.63;;;7.00;49.20;;;;;;20545;6826;297482;-71
2022/03/19 04:32:40;;;;;;;40.00;35.63;;;7.00;48.50;;;;;;20766;6826;119859;-72
2022/03/19 04:36:29;;;;;;;43.40;34.63;;;7.00;48.70;;;;;;20766;6826;117439;-71
2022/03/19 04:37:31;;;;;;;44.77;40.20;;;6.70;49.00;;;;;;20479;6826;309044;-71
2022/03/19 04:39:56;;;;;;;44.88;40.28;;;6.90;48.80;;;;;;20565;6826;278458;-71
2022/03/19 04:42:22;;;;;;;39.10;34.50;;;7.20;48.30;;;;;;20776;6826;118770;-71
2022/03/19 04:44:48;;;;;;;44.13;39.60;;;7.10;48.30;;;;;;20563;6826;309311;-71
2022/03/19 04:47:13;;;;;;;45.37;40.53;;;7.10;48.00;;;;;;20565;6826;313711;-73
2022/03/19 04:49:39;;;;;;;44.10;39.63;;;7.30;47.50;;;;;;20393;6826;307772;-70
2022/03/19 04:52:05;;;;;;;45.80;41.20;;;7.50;47.00;;;;;;20551;6826;340040;-70
2022/03/19 04:54:30;;;;;;;42.30;34.88;;;7.70;46.60;;;;;;20766;6826;117185;-71
2022/03/19 04:56:56;;;;;;;40.23;34.07;;;7.40;47.00;;;;;;20765;6826;117187;-71
2022/03/19 04:59:21;;;;;;;38.80;32.40;;;7.10;47.70;;;;;;20753;6826;145590;-72
2022/03/19 05:01:47;;;;;;;39.33;33.47;;;6.80;48.30;;;;;;20761;6826;121756;-71
2022/03/19 05:04:12;;;;;;;44.63;39.88;;;6.50;48.80;;;;;;20555;6826;308529;-71
2022/03/19 05:06:38;;;;;;;43.77;39.30;;;6.60;48.60;;;;;;20552;6826;309365;-70
2022/03/19 05:11:50;;;;;;;45.03;40.30;;;7.20;47.40;;;;;;20543;6826;313474;-71
2022/03/19 05:14:16;;;;;;;43.47;39.03;;;7.40;46.70;;;;;;20557;6826;322685;-70
2022/03/19 05:16:43;;;;;;;40.43;33.43;;;7.50;46.30;;;;;;20766;6826;119789;-71
2022/03/19 05:19:08;;;;;;;38.17;32.77;;;7.30;46.70;;;;;;20766;6826;120204;-71
2022/03/19 05:21:35;;;;;;;43.03;33.50;;;7.00;47.50;;;;;;20746;6826;117389;-70
2022/03/19 05:24:00;;;;;;;38.97;31.47;;;6.40;49.10;;;;;;20764;6826;119658;-70
2022/03/19 05:26:26;;;;;;;38.43;31.37;;;6.40;48.50;;;;;;20775;6826;117736;-72
2022/03/19 05:28:54;;;;;;;42.70;33.23;;;6.10;49.20;;;;;;20784;6826;117263;-74
2022/03/19 05:31:17;;;;;;;42.63;38.07;;;6.10;49.20;;;;;;20540;6825;281363;-71
2022/03/19 05:36:31;;;;;;;43.63;38.93;;;6.50;48.20;;;;;;20573;6826;281267;-72
2022/03/19 05:38:56;;;;;;;43.70;39.20;;;6.50;48.10;;;;;;20553;6826;308505;-72
2022/03/19 05:41:22;;;;;;;40.33;33.70;;;6.90;47.40;;;;;;20745;6826;118453;-71
2022/03/19 05:43:48;;;;;;;36.85;31.92;;;6.60;48.00;;;;;;20772;6826;117447;-71
2022/03/19 05:46:14;;;;;;;43.50;39.10;;;6.60;48.00;;;;;;20554;6826;308591;-71
2022/03/19 05:48:39;;;;;;;40.38;33.30;;;6.70;47.70;;;;;;20770;6826;117247;-70
2022/03/19 05:51:05;;;;;;;41.45;33.22;;;6.60;47.80;;;;;;20760;6826;117752;-72
2022/03/19 05:53:31;;;;;;;42.45;31.90;;;6.30;48.60;;;;;;20752;6826;127567;-72
2022/03/19 05:55:59;;;;;;;39.17;32.27;;;6.20;48.60;;;;;;20785;6826;67327;-70
2022/03/19 05:58:26;;;;;;;42.17;37.37;;;6.20;49.00;;;;;;20583;6826;280538;-73
2022/03/19 06:00:53;;;;;;;39.50;33.97;;;6.40;48.50;;;;;;20788;6826;117738;-73
2022/03/19 06:03:19;;;;;;;37.77;31.87;;;6.50;48.50;;;;;;20773;6826;119305;-70
2022/03/19 06:05:48;;;;;;;38.73;31.07;;;6.40;48.80;;;;;;20764;6826;117811;-75
2022/03/19 06:08:14;;;;;;;41.93;37.43;;;6.40;49.10;;;;;;20562;6826;277171;-73
2022/03/19 06:10:40;;;;;;;36.83;31.97;;;6.60;48.20;;;;;;20793;6826;116326;-71
2022/03/19 06:13:05;;;;;;;42.37;37.80;;;6.70;48.10;;;;;;20556;6826;340023;-73
2022/03/19 06:15:31;;;;;;;36.23;32.37;;;7.00;47.40;;;;;;20774;6826;127087;-76
2022/03/19 06:17:58;;;;;;;36.67;31.23;;;7.00;47.50;;;;;;20782;6826;117420;-76
2022/03/19 06:20:24;;;;;;;39.03;31.13;;;6.80;48.20;;;;;;20770;6826;117421;-73
2022/03/19 06:22:51;;;;;;;36.97;31.27;;;6.80;48.20;;;;;;20771;6826;67349;-74
2022/03/19 06:25:18;;;;;;;41.63;32.13;;;6.70;48.50;;;;;;20738;6826;117150;-72
2022/03/19 06:27:45;;;;;;;39.67;35.43;;;6.90;47.50;;;;;;20553;6826;307997;-73
2022/03/19 06:30:12;;;;;;;38.20;32.57;;;6.90;47.50;;;;;;20772;6826;117358;-72
2022/03/19 06:32:41;;;;;;;37.30;30.93;;;7.00;47.50;;;;;;20765;6826;117492;-72
2022/03/19 06:35:04;;;;;;;41.07;36.87;;;7.00;47.90;;;;;;20547;6826;277901;-72
2022/03/19 06:37:30;;;;;;;40.67;36.47;;;7.20;46.90;;;;;;20530;6826;307237;-72
2022/03/19 06:39:57;;;;;;;41.30;37.10;;;7.60;45.90;;;;;;20572;6826;280726;-72
2022/03/19 06:42:20;;;;;;;40.77;36.70;;;8.00;45.00;;;;;;20567;6824;278446;-72
2022/03/19 06:44:46;;;;;;;40.12;36.03;;;8.30;44.30;;;;;;20564;6825;336676;-72
2022/03/19 06:47:13;;;;;;;40.53;36.53;;;8.50;43.60;;;;;;20574;6826;282504;-72
2022/03/19 06:49:38;;;;;;;35.27;31.57;;;8.70;43.20;;;;;;20768;6826;119368;-72
2022/03/19 06:52:04;;;;;;;39.23;31.97;;;8.60;43.90;;;;;;20777;6826;117276;-72
2022/03/19 06:54:29;;;;;;;38.50;34.53;;;8.50;45.00;;;;;;20563;6826;307615;-74
2022/03/19 06:56:55;;;;;;;38.17;34.30;;;8.60;43.70;;;;;;20556;6826;340158;-74
2022/03/19 06:59:21;;;;;;;38.38;34.47;;;8.90;42.60;;;;;;20540;6826;307513;-74
2022/03/19 07:01:46;;;;;;;37.80;33.97;;;9.20;41.80;;;;;;20559;6826;306985;-74
2022/03/19 07:04:12;;;;;;;33.90;30.30;;;9.40;41.30;;;;;;20774;6826;117105;-74
2022/03/19 07:06:38;;;;;;;37.07;33.30;;;9.40;41.40;;;;;;20561;6826;306966;-74
2022/03/19 07:09:04;;;;;;;37.00;33.40;;;9.40;41.40;;;;;;20548;6826;336520;-74
2022/03/19 07:11:31;;;;;;;32.35;28.92;;;9.60;40.60;;;;;;20746;6826;118062;-75
2022/03/19 07:13:55;;;;;;;33.07;29.37;;;9.60;41.50;;;;;;20765;6826;117615;-74
2022/03/19 07:16:21;;;;;;;36.60;32.85;;;9.40;42.30;;;;;;20556;6826;309702;-77
2022/03/19 07:18:46;;;;;;;36.87;33.10;;;9.50;41.30;;;;;;20560;6826;308481;-71
2022/03/19 07:21:13;;;;;;;32.60;29.13;;;9.80;40.60;;;;;;20759;6826;117404;-79
2022/03/19 07:23:38;;;;;;;36.90;33.30;;;9.90;41.50;;;;;;20537;6826;279423;-74
2022/03/19 07:26:04;;;;;;;36.73;33.03;;;10.40;38.90;;;;;;20541;6826;307515;-77
2022/03/19 07:28:30;;;;;;;34.67;29.80;;;10.30;38.80;;;;;;20743;6826;117576;-72
2022/03/19 07:30:56;;;;;;;34.87;28.37;;;10.30;39.60;;;;;;20768;6826;118193;-69
2022/03/19 07:33:22;;;;;;;36.07;32.57;;;10.10;40.30;;;;;;20516;6826;277846;-74
2022/03/19 07:35:47;;;;;;;36.90;33.37;;;10.50;38.50;;;;;;20542;6826;310922;-70
2022/03/19 07:38:13;;;;;;;32.87;29.43;;;10.50;39.10;;;;;;20766;6826;117821;-71
2022/03/19 07:43:24;;;;;;;34.07;30.03;;;10.70;38.00;;;;;;20757;6826;120680;-71
2022/03/19 07:45:51;;;;;;;36.43;32.80;;;10.70;37.80;;;;;;20550;6826;307997;-72
2022/03/19 07:48:17;;;;;;;31.77;27.57;;;10.70;38.40;;;;;;20779;6826;117428;-72
2022/03/19 07:50:44;;;;;;;33.77;27.60;;;10.60;38.30;;;;;;20776;6826;117464;-80
2022/03/19 07:53:10;;;;;;;35.73;32.33;;;10.50;39.10;;;;;;20548;6826;306960;-72
2022/03/19 07:55:35;;;;;;;36.20;32.60;;;10.60;37.60;;;;;;20546;6824;311126;-72
2022/03/19 07:58:02;;;;;;;31.80;28.52;;;11.00;38.30;;;;;;20771;6825;117401;-71
2022/03/19 08:00:28;;;;;;;31.60;28.20;;;11.00;38.20;;;;;;20763;6826;117351;-72
2022/03/19 08:02:54;;;;;;;30.90;27.60;;;10.90;38.90;;;;;;20765;6826;117837;-71
2022/03/19 08:05:19;;;;;;;34.83;31.27;;;10.70;39.60;;;;;;20518;6826;280310;-72
2022/03/19 08:07:45;;;;;;;34.90;31.37;;;10.90;37.40;;;;;;20495;6826;308798;-72
2022/03/19 08:10:10;;;;;;;32.08;28.62;;;11.30;36.50;;;;;;20741;6826;117419;-72
2022/03/19 08:12:37;;;;;;;29.15;26.10;;;11.20;37.90;;;;;;20661;6826;121340;-72
2022/03/19 08:15:02;;;;;;;30.60;27.20;;;11.20;38.10;;;;;;20727;6826;117464;-72
2022/03/19 08:17:29;;;;;;;33.67;30.20;;;11.30;37.40;;;;;;20509;6826;311974;-73
2022/03/19 08:19:58;;;;;;;33.80;30.53;;;11.30;36.60;;;;;;20534;6826;309630;-73
2022/03/19 08:22:23;;;;;;;29.37;26.23;;;11.60;35.50;;;;;;20718;6826;117705;-69
2022/03/19 08:24:49;;;;;;;28.43;25.43;;;11.70;36.30;;;;;;20750;6826;118419;-72
2022/03/19 08:27:15;;;;;;;33.60;30.27;;;11.60;34.80;;;;;;20536;6826;276819;-74
2022/03/19 08:29:41;;;;;;;33.55;30.25;;;11.60;35.10;;;;;;20557;6826;309371;-72
2022/03/19 08:32:08;;;;;;;32.92;29.63;;;11.90;34.90;;;;;;20552;6826;339634;-72
2022/03/19 08:34:32;;;;;;;28.77;25.33;;;12.30;34.40;;;;;;20767;6826;117485;-73
2022/03/19 08:36:57;;;;;;;29.93;26.70;;;12.30;35.10;;;;;;20772;6826;117524;-73
2022/03/19 08:42:08;;;;;;;32.60;29.40;;;12.00;36.40;;;;;;20565;6826;299532;-78
2022/03/19 08:44:34;;;;;;;32.35;29.25;;;12.30;34.70;;;;;;20555;6826;307451;-76
2022/03/19 08:47:00;;;;;;;30.60;25.35;;;12.60;33.60;;;;;;20776;6826;117491;-77
2022/03/19 08:49:26;;;;;;;28.33;24.10;;;12.70;34.50;;;;;;20754;6826;121366;-76
2022/03/19 08:51:52;;;;;;;29.77;26.97;;;12.60;33.20;;;;;;20542;6826;310218;-76
2022/03/19 08:54:18;;;;;;;27.47;24.63;;;12.60;33.20;;;;;;20771;6826;117821;-72
2022/03/19 08:56:44;;;;;;;30.33;27.47;;;12.70;34.00;;;;;;20531;6826;277920;-72
2022/03/19 08:59:09;;;;;;;27.00;24.12;;;12.80;32.30;;;;;;20742;6826;116499;-74
2022/03/19 09:01:35;;;;;;;29.50;26.67;;;12.80;33.20;;;;;;20534;6826;279572;-75
2022/03/19 09:04:00;;;;;;;28.33;25.58;;;12.90;31.90;;;;;;20766;6826;117503;-74
2022/03/19 09:06:26;;;;;;;27.80;23.73;;;12.90;33.10;;;;;;20763;6824;118353;-70
2022/03/19 09:08:51;;;;;;;29.37;26.58;;;12.80;33.70;;;;;;20560;6825;307022;-70
2022/03/19 09:11:20;;;;;;;27.47;24.70;;;12.90;31.80;;;;;;20750;6826;118459;-73
2022/03/19 09:13:43;;;;;;;29.20;26.20;;;12.90;32.90;;;;;;20534;6826;336439;-73
2022/03/19 09:16:08;;;;;;;29.12;26.33;;;13.00;31.60;;;;;;20559;6826;310107;-72
2022/03/19 09:18:34;;;;;;;29.87;26.77;;;13.30;31.00;;;;;;20569;6826;294073;-78
2022/03/19 09:20:59;;;;;;;28.70;25.90;;;13.50;30.50;;;;;;20562;6826;334914;-72
2022/03/19 09:23:26;;;;;;;26.57;23.83;;;13.50;31.20;;;;;;20753;6826;121284;-73
2022/03/19 09:25:51;;;;;;;26.93;23.53;;;13.50;31.10;;;;;;20766;6826;118028;-71
2022/03/19 09:28:17;;;;;;;24.97;22.37;;;13.30;31.90;;;;;;20776;6826;117448;-72
2022/03/19 09:30:42;;;;;;;24.65;22.08;;;13.00;32.60;;;;;;20762;6826;118501;-71
2022/03/19 09:33:08;;;;;;;25.03;22.50;;;12.90;33.30;;;;;;20770;6826;117468;-71
2022/03/19 09:35:33;;;;;;;24.13;21.60;;;12.90;33.60;;;;;;20749;6826;117479;-71
2022/03/19 09:38:00;;;;;;;25.45;22.75;;;12.90;33.90;;;;;;20772;6826;118718;-71
2022/03/19 09:40:25;;;;;;;24.10;21.53;;;12.90;33.90;;;;;;20775;6826;117434;-72
2022/03/19 09:42:51;;;;;;;26.15;23.55;;;12.90;34.00;;;;;;20554;6826;312401;-71
2022/03/19 09:45:19;;;;;;;23.10;20.73;;;13.20;31.00;;;;;;20744;6826;120181;-73
2022/03/19 09:47:46;;;;;;;26.97;24.43;;;13.40;30.40;;;;;;20547;6826;312513;-71
2022/03/19 09:50:11;;;;;;;26.60;24.10;;;13.40;29.90;;;;;;20556;6826;292253;-72
2022/03/19 09:52:37;;;;;;;26.87;24.08;;;13.70;29.70;;;;;;20554;6826;308725;-71
2022/03/19 09:55:03;;;;;;;24.67;22.17;;;14.10;29.60;;;;;;20771;6826;117530;-72
2022/03/19 09:57:28;;;;;;;26.50;24.00;;;14.00;30.30;;;;;;20548;6826;307166;-72
2022/03/19 09:59:54;;;;;;;26.50;24.00;;;14.10;29.30;;;;;;20559;6826;280950;-72
2022/03/19 10:02:19;;;;;;;25.88;23.45;;;14.30;29.60;;;;;;20563;6826;293729;-71
2022/03/19 10:04:45;;;;;;;25.23;22.93;;;14.50;28.50;;;;;;20556;6826;336639;-71
2022/03/19 10:09:56;;;;;;;24.70;22.03;;;14.70;28.20;;;;;;20774;6826;117890;-72
2022/03/19 10:12:22;;;;;;;23.33;20.83;;;14.50;29.10;;;;;;20766;6826;118342;-73
2022/03/19 10:14:47;;;;;;;25.37;22.85;;;14.20;29.90;;;;;;20545;6826;302896;-72
2022/03/19 10:17:13;;;;;;;23.50;21.13;;;14.30;29.60;;;;;;20758;6825;118293;-72
2022/03/19 10:19:48;;;;;;;24.97;22.37;;;14.30;29.90;;;;;;20513;6825;277318;-71
2022/03/19 10:22:13;;;;;;;24.73;22.53;;;14.50;28.50;;;;;;20564;6826;306807;-71
2022/03/19 10:24:39;;;;;;;23.35;21.25;;;14.80;28.30;;;;;;20791;6826;117990;-71
2022/03/19 10:27:04;;;;;;;23.93;21.43;;;14.80;29.20;;;;;;20791;6826;118237;-70
2022/03/19 10:29:31;;;;;;;22.23;19.95;;;14.60;29.60;;;;;;20721;6826;120578;-71
2022/03/19 10:32:03;;;;;;;24.30;21.87;;;14.40;30.20;;;;;;20767;6826;120589;-72
2022/03/19 10:34:28;;;;;;;23.43;21.00;;;14.30;30.70;;;;;;20759;6826;122341;-68
2022/03/19 10:36:53;;;;;;;24.98;22.17;;;14.20;31.20;;;;;;20785;6826;117537;-69
2022/03/19 10:39:19;;;;;;;24.67;22.08;;;14.10;30.60;;;;;;20761;6826;117463;-69
2022/03/19 10:41:45;;;;;;;22.57;20.27;;;14.00;31.20;;;;;;20762;6826;117725;-69
2022/03/19 10:44:16;;;;;;;23.57;21.07;;;14.00;31.60;;;;;;20776;6826;118526;-69
2022/03/19 10:46:42;;;;;;;25.13;22.77;;;13.90;31.20;;;;;;20544;6826;280834;-70
2022/03/19 10:49:11;;;;;;;25.92;22.55;;;14.20;28.80;;;;;;20760;6826;120885;-69
2022/03/19 10:51:36;;;;;;;27.33;24.20;;;14.30;29.60;;;;;;20753;6826;117833;-69
2022/03/19 10:54:02;;;;;;;26.90;22.80;;;14.20;30.10;;;;;;20768;6826;117487;-69
2022/03/19 10:56:27;;;;;;;25.67;21.63;;;14.10;30.50;;;;;;20772;6826;117398;-69
2022/03/19 10:58:53;;;;;;;27.00;24.40;;;14.00;30.60;;;;;;20555;6826;340518;-70
2022/03/19 11:01:18;;;;;;;26.20;23.70;;;14.30;29.10;;;;;;20532;6826;309350;-70
2022/03/19 11:03:45;;;;;;;24.87;22.47;;;14.90;27.30;;;;;;20554;6826;288483;-69
2022/03/19 11:06:10;;;;;;;25.83;23.48;;;14.90;27.20;;;;;;20549;6826;337437;-69
2022/03/19 11:08:38;;;;;;;27.33;24.92;;;15.10;26.90;;;;;;20554;6826;339732;-69
2022/03/19 11:11:01;;;;;;;24.30;21.97;;;15.10;27.00;;;;;;20751;6826;117426;-71
2022/03/19 11:13:27;;;;;;;26.48;23.95;;;15.00;28.10;;;;;;20471;6826;283240;-70
2022/03/19 11:15:54;;;;;;;50.63;45.38;;;14.90;28.60;;;;;;20759;6826;119202;-69
2022/03/19 11:18:19;;;;;;;26.83;23.87;;;14.90;28.60;;;;;;20699;6826;121264;-69
2022/03/19 11:20:47;;;;;;;26.13;23.37;;;14.70;29.30;;;;;;20749;6826;117880;-71
2022/03/19 11:23:13;;;;;;;29.23;26.43;;;14.50;29.80;;;;;;20551;6826;310083;-69
2022/03/19 11:25:39;;;;;;;30.83;27.67;;;14.90;29.40;;;;;;20535;6808;276836;-70
2022/03/19 11:28:06;;;;;;;27.97;25.13;;;14.90;29.40;;;;;;20808;6808;117472;-69
2022/03/19 11:30:30;;;;;;;27.53;24.83;;;14.80;29.90;;;;;;20801;6807;117343;-70
2022/03/19 11:33:16;;;;;;;25.23;22.67;;;14.70;30.30;;;;;;20837;6808;117426;-70
2022/03/19 11:35:42;;;;;;;29.03;26.10;;;14.50;30.50;;;;;;20616;6808;306961;-71
2022/03/19 11:38:17;;;;;;;27.40;24.67;;;14.60;29.50;;;;;;20556;6821;310472;-74
2022/03/19 11:40:46;;;;;;;25.17;22.67;;;14.90;29.70;;;;;;20786;6823;118937;-71
2022/03/19 11:43:09;;;;;;;25.58;22.98;;;14.80;29.60;;;;;;20564;6823;283013;-71
2022/03/19 11:45:54;;;;;;;24.03;21.63;;;15.00;28.80;;;;;;20764;6823;117584;-70
2022/03/19 11:48:41;;;;;;;25.50;22.80;;;14.90;29.60;;;;;;20571;6823;279603;-70
2022/03/19 11:51:18;;;;;;;22.52;20.27;;;15.10;28.70;;;;;;20554;6823;307632;-71
2022/03/19 11:53:51;;;;;;;23.03;20.80;;;15.30;27.90;;;;;;20563;6823;311153;-71
2022/03/19 11:56:19;;;;;;;18.73;16.93;;;15.40;27.60;;;;;;20784;6823;117850;-73
2022/03/19 11:58:43;;;;;;;17.67;15.97;;;15.30;28.50;;;;;;20814;6812;117796;-70
2022/03/19 12:01:09;;;;;;;19.45;17.45;;;15.00;28.90;;;;;;20617;6812;306234;-72
2022/03/19 12:03:36;;;;;;;16.90;15.03;;;15.00;27.30;;;;;;20810;6812;123373;-75
2022/03/19 12:06:03;;;;;;;14.57;13.13;;;14.80;28.10;;;;;;20691;6826;123159;-74
2022/03/19 12:08:27;;;;;;;15.27;13.97;;;14.60;28.30;;;;;;20497;6815;281433;-71
2022/03/19 12:11:02;;;;;;;16.40;14.80;;;14.60;26.70;;;;;;20588;6815;289831;-71
2022/03/19 12:13:28;;;;;;;13.57;11.67;;;14.80;26.20;;;;;;20736;6821;118013;-70
2022/03/19 12:16:04;;;;;;;14.13;12.82;;;14.70;26.40;;;;;;20571;6821;342886;-70
2022/03/19 12:18:41;;;;;;;13.67;11.80;;;14.70;25.90;;;;;;20764;6821;117429;-73
2022/03/19 12:21:09;;;;;;;15.15;13.85;;;14.70;27.40;;;;;;20574;6821;336614;-69
2022/03/19 12:23:51;;;;;;;13.57;12.37;;;14.80;26.50;;;;;;20776;6821;117984;-72
2022/03/19 12:26:16;;;;;;;14.60;13.10;;;14.70;27.60;;;;;;20779;6821;117294;-73
2022/03/19 12:28:43;;;;;;;15.82;14.32;;;14.60;27.10;;;;;;20569;6821;278926;-71
2022/03/19 12:31:11;;;;;;;13.80;12.47;;;14.60;27.10;;;;;;20789;6821;120793;-73
2022/03/19 12:33:38;;;;;;;16.12;14.63;;;14.70;26.60;;;;;;20508;6821;340539;-73
2022/03/19 12:36:13;;;;;;;15.67;14.20;;;14.60;25.90;;;;;;20783;6818;118704;-73